createdAt,value
2019-04-04T00:00:41.180Z,8.33
2019-04-04T00:03:14.591Z,8.23
2019-04-04T00:05:47.902Z,7.87
2019-04-04T00:08:21.307Z,7.30
2019-04-04T00:10:54.797Z,7.00
2019-04-04T00:13:28.196Z,8.00
2019-04-04T00:16:02.078Z,6.70
2019-04-04T00:18:35.496Z,6.77
2019-04-04T00:21:08.952Z,6.83
2019-04-04T00:23:42.436Z,6.73
2019-04-04T00:26:15.755Z,6.90
2019-04-04T00:28:49.196Z,6.90
2019-04-04T00:31:22.600Z,7.17
2019-04-04T00:33:56.464Z,6.80
2019-04-04T00:36:30.074Z,6.87
2019-04-04T00:39:05.204Z,6.53
2019-04-04T00:41:38.611Z,6.17
2019-04-04T00:44:12.088Z,6.30
2019-04-04T00:46:46.419Z,5.40
2019-04-04T00:49:19.876Z,6.33
2019-04-04T00:51:53.355Z,6.40
2019-04-04T00:54:26.718Z,5.87
2019-04-04T00:57:00.071Z,6.70
2019-04-04T00:59:33.554Z,5.80
2019-04-04T01:02:07.010Z,5.40
2019-04-04T01:04:40.394Z,5.40
2019-04-04T01:07:13.865Z,6.07
2019-04-04T01:09:47.912Z,4.63
2019-04-04T01:12:22.365Z,4.97
2019-04-04T01:14:55.978Z,5.93
2019-04-04T01:17:29.364Z,6.73
2019-04-04T01:20:03.077Z,5.90
2019-04-04T01:22:36.457Z,6.00
2019-04-04T01:25:10.063Z,5.90
2019-04-04T01:27:43.477Z,5.90
2019-04-04T01:30:17.456Z,6.63
2019-04-04T01:32:50.866Z,5.77
2019-04-04T01:35:24.197Z,7.13
2019-04-04T01:37:59.265Z,5.47
2019-04-04T01:40:33.623Z,7.00
2019-04-04T01:43:09.247Z,6.70
2019-04-04T01:45:44.045Z,6.13
2019-04-04T01:48:18.867Z,5.80
2019-04-04T01:50:53.736Z,6.50
2019-04-04T01:53:28.124Z,6.63
2019-04-04T01:56:05.933Z,7.40
2019-04-04T01:58:40.858Z,7.10
2019-04-04T02:01:13.135Z,7.07
2019-04-04T02:03:48.183Z,6.33
2019-04-04T02:06:21.528Z,6.40
2019-04-04T02:08:55.044Z,5.87
2019-04-04T02:11:28.438Z,6.40
2019-04-04T02:14:01.811Z,6.13
2019-04-04T02:16:35.132Z,7.93
2019-04-04T02:19:08.504Z,6.67
2019-04-04T02:21:41.830Z,7.27
2019-04-04T02:24:15.234Z,6.73
2019-04-04T02:26:48.615Z,6.70
2019-04-04T02:29:22.035Z,6.00
2019-04-04T02:31:57.143Z,5.30
2019-04-04T02:34:30.493Z,7.43
2019-04-04T02:37:03.913Z,6.20
2019-04-04T02:39:37.332Z,6.17
2019-04-04T02:42:10.731Z,6.03
2019-04-04T02:44:44.228Z,6.70
2019-04-04T02:47:18.332Z,9.37
2019-04-04T02:49:51.886Z,7.27
2019-04-04T02:52:25.291Z,6.57
2019-04-04T02:54:58.705Z,7.93
2019-04-04T02:57:32.015Z,6.60
2019-04-04T03:00:06.479Z,5.63
2019-04-04T03:02:39.840Z,4.13
2019-04-04T03:05:13.362Z,3.97
2019-04-04T03:07:46.841Z,6.60
2019-04-04T03:10:20.340Z,6.97
2019-04-04T03:12:57.990Z,7.73
2019-04-04T03:15:29.033Z,7.17
2019-04-04T03:18:05.239Z,6.47
2019-04-04T03:20:37.757Z,6.40
2019-04-04T03:23:11.168Z,5.53
2019-04-04T03:25:44.659Z,8.20
2019-04-04T03:28:19.590Z,6.50
2019-04-04T03:31:01.796Z,7.57
2019-04-04T03:33:31.581Z,5.60
2019-04-04T03:36:03.251Z,8.73
2019-04-04T03:38:36.680Z,7.13
2019-04-04T03:41:10.073Z,8.43
2019-04-04T03:43:45.783Z,6.40
2019-04-04T03:46:18.493Z,6.77
2019-04-04T03:48:51.828Z,9.13
2019-04-04T03:51:25.224Z,7.57
2019-04-04T03:54:00.237Z,8.20
2019-04-04T03:56:38.977Z,10.03
2019-04-04T03:59:08.866Z,7.70
2019-04-04T04:01:45.225Z,8.13
2019-04-04T04:04:17.346Z,8.70
2019-04-04T04:06:50.751Z,10.97
2019-04-04T04:09:26.333Z,9.50
2019-04-04T04:11:59.201Z,10.27
2019-04-04T04:14:32.584Z,16.07
2019-04-04T04:17:05.973Z,9.83
2019-04-04T04:19:39.375Z,10.10
2019-04-04T04:22:13.317Z,9.20
2019-04-04T04:24:47.841Z,11.70
2019-04-04T04:27:21.310Z,12.93
2019-04-04T04:29:54.695Z,12.00
2019-04-04T04:32:28.159Z,11.27
2019-04-04T04:35:01.679Z,14.50
2019-04-04T04:37:35.218Z,11.63
2019-04-04T04:40:13.908Z,15.87
2019-04-04T04:42:44.367Z,12.73
2019-04-04T04:45:17.762Z,12.17
2019-04-04T04:47:51.136Z,12.07
2019-04-04T04:50:24.553Z,11.83
2019-04-04T04:52:57.994Z,12.13
2019-04-04T04:55:31.392Z,12.33
2019-04-04T04:58:04.866Z,12.53
2019-04-04T05:00:40.040Z,15.43
2019-04-04T05:03:13.594Z,14.40
2019-04-04T05:05:46.938Z,15.40
2019-04-04T05:08:20.285Z,18.90
2019-04-04T05:10:53.769Z,16.33
2019-04-04T05:13:28.793Z,16.00
2019-04-04T05:16:05.191Z,17.40
2019-04-04T05:18:37.581Z,16.67
2019-04-04T05:21:11.026Z,15.90
2019-04-04T05:23:44.934Z,15.70
2019-04-04T05:26:19.581Z,15.33
2019-04-04T05:28:52.920Z,17.63
2019-04-04T05:31:26.303Z,15.23
2019-04-04T05:33:59.955Z,14.80
2019-04-04T05:36:36.041Z,15.73
2019-04-04T05:39:09.095Z,16.57
2019-04-04T05:41:42.660Z,14.50
2019-04-04T05:44:16.157Z,15.53
2019-04-04T05:46:51.907Z,14.70
2019-04-04T05:49:24.897Z,13.47
2019-04-04T05:51:58.339Z,13.97
2019-04-04T05:54:31.681Z,14.67
2019-04-04T05:57:05.110Z,14.40
2019-04-04T05:59:38.503Z,14.37
2019-04-04T06:02:12.182Z,16.20
2019-04-04T06:04:45.591Z,14.57
2019-04-04T06:07:19.020Z,13.60
2019-04-04T06:09:52.392Z,14.90
2019-04-04T06:12:25.814Z,13.67
2019-04-04T06:15:00.557Z,15.13
2019-04-04T06:17:34.243Z,14.50
2019-04-04T06:20:08.497Z,14.43
2019-04-04T06:22:41.963Z,14.83
2019-04-04T06:25:15.397Z,13.93
2019-04-04T06:27:48.747Z,13.37
2019-04-04T06:30:22.069Z,13.20
2019-04-04T06:32:55.440Z,14.30
2019-04-04T06:35:28.895Z,13.70
2019-04-04T06:38:02.351Z,13.23
2019-04-04T06:40:35.798Z,12.73
2019-04-04T06:43:11.577Z,13.50
2019-04-04T06:45:46.270Z,13.03
2019-04-04T06:48:19.481Z,13.30
2019-04-04T06:50:52.856Z,13.83
2019-04-04T06:53:26.211Z,12.70
2019-04-04T06:56:00.359Z,13.57
2019-04-04T06:58:34.445Z,13.30
2019-04-04T07:01:10.910Z,13.50
2019-04-04T07:03:42.926Z,13.93
2019-04-04T07:06:16.344Z,13.80
2019-04-04T07:08:49.773Z,14.73
2019-04-04T07:11:23.190Z,13.87
2019-04-04T07:13:57.026Z,14.13
2019-04-04T07:16:31.652Z,14.87
2019-04-04T07:19:07.853Z,15.50
2019-04-04T07:21:40.788Z,16.10
2019-04-04T07:24:14.488Z,17.13
2019-04-04T07:26:48.048Z,16.20
2019-04-04T07:29:23.022Z,18.60
2019-04-04T07:31:57.229Z,16.93
2019-04-04T07:34:30.730Z,18.13
2019-04-04T07:37:04.748Z,19.67
2019-04-04T07:39:38.536Z,20.57
2019-04-04T07:42:15.567Z,21.00
2019-04-04T07:44:47.434Z,21.33
2019-04-04T07:47:20.867Z,21.67
2019-04-04T07:49:55.024Z,22.77
2019-04-04T07:52:29.048Z,22.50
2019-04-04T07:55:02.422Z,23.93
2019-04-04T07:57:35.781Z,23.43
2019-04-04T08:00:09.387Z,23.97
2019-04-04T08:02:42.939Z,23.33
2019-04-04T08:05:16.697Z,23.77
2019-04-04T08:07:50.159Z,23.23
2019-04-04T08:10:23.520Z,20.57
2019-04-04T08:12:56.982Z,19.57
2019-04-04T08:15:30.408Z,19.63
2019-04-04T08:18:03.732Z,18.90
2019-04-04T08:20:37.196Z,19.63
2019-04-04T08:23:10.616Z,18.40
2019-04-04T08:25:43.962Z,18.23
2019-04-04T08:28:17.458Z,18.50
2019-04-04T08:30:50.782Z,17.63
2019-04-04T08:33:24.288Z,17.70
2019-04-04T08:36:05.766Z,17.97
2019-04-04T08:38:32.787Z,17.03
2019-04-04T08:41:06.251Z,16.23
2019-04-04T08:43:39.678Z,18.10
2019-04-04T08:46:13.086Z,17.57
2019-04-04T08:48:46.477Z,15.57
2019-04-04T08:51:19.815Z,16.70
2019-04-04T08:53:53.193Z,17.90
2019-04-04T08:56:26.657Z,19.10
2019-04-04T08:59:00.024Z,20.33
2019-04-04T09:01:33.373Z,19.40
2019-04-04T09:04:06.768Z,20.00
2019-04-04T09:06:40.144Z,19.00
2019-04-04T09:09:13.633Z,19.83
2019-04-04T09:11:47.087Z,18.87
2019-04-04T09:14:20.515Z,19.60
2019-04-04T09:16:54.439Z,20.93
2019-04-04T09:19:27.890Z,19.67
2019-04-04T09:22:01.239Z,20.37
2019-04-04T09:24:34.662Z,20.57
2019-04-04T09:27:08.054Z,21.77
2019-04-04T09:29:41.460Z,20.17
2019-04-04T09:32:14.774Z,22.53
2019-04-04T09:34:48.227Z,23.63
2019-04-04T09:37:21.613Z,21.47
2019-04-04T09:39:55.100Z,21.23
2019-04-04T09:42:28.716Z,20.80
2019-04-04T09:45:02.231Z,20.60
2019-04-04T09:47:35.577Z,20.43
2019-04-04T09:50:10.174Z,20.70
2019-04-04T09:52:43.679Z,21.23
2019-04-04T09:55:17.130Z,21.67
2019-04-04T09:57:50.571Z,22.00
2019-04-04T10:00:24.276Z,24.00
2019-04-04T10:02:57.807Z,22.60
2019-04-04T10:05:31.515Z,22.33
2019-04-04T10:08:05.595Z,23.87
2019-04-04T10:10:38.932Z,25.10
2019-04-04T10:13:12.253Z,24.40
2019-04-04T10:15:45.695Z,24.17
2019-04-04T10:18:19.015Z,24.70
2019-04-04T10:20:52.464Z,26.13
2019-04-04T10:23:25.793Z,27.03
2019-04-04T10:25:59.306Z,29.30
2019-04-04T10:28:32.633Z,31.37
2019-04-04T10:31:06.008Z,33.73
2019-04-04T10:33:42.063Z,33.43
2019-04-04T10:36:14.427Z,31.77
2019-04-04T10:38:47.847Z,32.67
2019-04-04T10:41:21.269Z,32.47
2019-04-04T10:43:54.666Z,34.00
2019-04-04T10:46:28.095Z,33.60
2019-04-04T10:49:01.465Z,35.07
2019-04-04T10:51:34.905Z,33.43
2019-04-04T10:54:08.248Z,36.50
2019-04-04T10:56:41.614Z,36.50
2019-04-04T10:59:15.007Z,35.17
2019-04-04T11:01:48.502Z,39.87
2019-04-04T11:04:21.830Z,40.37
2019-04-04T11:06:55.176Z,37.60
2019-04-04T11:09:36.351Z,39.13
2019-04-04T11:12:03.639Z,38.07
2019-04-04T11:14:37.030Z,40.60
2019-04-04T11:17:10.503Z,39.60
2019-04-04T11:19:43.907Z,43.37
2019-04-04T11:22:17.328Z,41.33
2019-04-04T11:24:50.822Z,43.03
2019-04-04T11:27:24.173Z,41.20
2019-04-04T11:29:57.634Z,38.17
2019-04-04T11:32:31.000Z,39.73
2019-04-04T11:35:06.331Z,42.47
2019-04-04T11:37:39.794Z,39.70
2019-04-04T11:40:13.225Z,41.40
2019-04-04T11:42:46.663Z,40.77
2019-04-04T11:45:20.132Z,40.90
2019-04-04T11:47:53.514Z,43.87
2019-04-04T11:50:26.835Z,42.00
2019-04-04T11:53:00.272Z,44.07
2019-04-04T11:55:34.259Z,43.63
2019-04-04T11:58:07.681Z,44.20
2019-04-04T12:00:45.532Z,44.40
2019-04-04T12:03:19.586Z,43.90
2019-04-04T12:05:53.012Z,44.60
2019-04-04T12:08:26.392Z,45.27
2019-04-04T12:10:59.712Z,44.60
2019-04-04T12:13:33.087Z,43.53
2019-04-04T12:16:06.516Z,43.23
2019-04-04T12:18:39.865Z,40.57
2019-04-04T12:21:13.290Z,43.67
2019-04-04T12:23:46.630Z,44.40
2019-04-04T12:26:20.075Z,44.20
2019-04-04T12:28:53.402Z,43.50
2019-04-04T12:31:26.797Z,40.43
2019-04-04T12:34:02.064Z,41.90
2019-04-04T12:36:35.209Z,39.63
2019-04-04T12:39:08.616Z,42.83
2019-04-04T12:41:41.970Z,43.77
2019-04-04T12:44:15.295Z,43.83
2019-04-04T12:46:48.734Z,45.13
2019-04-04T12:49:22.157Z,47.13
2019-04-04T12:51:55.545Z,49.47
2019-04-04T12:54:28.882Z,52.03
2019-04-04T12:57:02.293Z,48.90
2019-04-04T12:59:35.737Z,49.97
2019-04-04T13:02:09.096Z,51.97
2019-04-04T13:04:42.437Z,50.63
2019-04-04T13:07:15.886Z,50.23
2019-04-04T13:09:49.252Z,53.30
2019-04-04T13:12:22.619Z,51.53
2019-04-04T13:14:55.947Z,52.17
2019-04-04T13:17:29.395Z,54.40
2019-04-04T13:20:02.799Z,52.43
2019-04-04T13:22:36.249Z,53.43
2019-04-04T13:25:10.027Z,54.03
2019-04-04T13:27:43.424Z,53.50
2019-04-04T13:30:16.936Z,51.83
2019-04-04T13:32:50.402Z,53.23
2019-04-04T13:35:23.903Z,51.50
2019-04-04T13:37:57.243Z,50.13
2019-04-04T13:40:30.666Z,49.48
2019-04-04T13:43:04.159Z,51.57
2019-04-04T13:45:37.544Z,49.20
2019-04-04T13:48:12.707Z,49.30
2019-04-04T13:50:46.047Z,49.73
2019-04-04T13:53:20.816Z,48.70
2019-04-04T13:55:54.518Z,48.28
2019-04-04T13:58:27.872Z,48.90
2019-04-04T14:01:01.215Z,47.20
2019-04-04T14:03:34.562Z,46.50
2019-04-04T14:06:07.966Z,48.52
2019-04-04T14:08:41.421Z,46.75
2019-04-04T14:11:14.754Z,46.77
2019-04-04T14:13:49.454Z,45.60
2019-04-04T14:16:23.017Z,49.15
2019-04-04T14:18:56.378Z,46.88
2019-04-04T14:21:29.697Z,47.00
2019-04-04T14:24:12.843Z,46.50
2019-04-04T14:26:38.287Z,44.73
2019-04-04T14:29:11.706Z,45.83
2019-04-04T14:31:45.057Z,44.30
2019-04-04T14:34:18.421Z,44.05
2019-04-04T14:36:51.737Z,43.20
2019-04-04T14:39:25.080Z,42.53
2019-04-04T14:41:58.461Z,40.23
2019-04-04T14:44:31.799Z,42.00
2019-04-04T14:47:05.215Z,41.42
2019-04-04T14:49:38.559Z,41.58
2019-04-04T14:52:11.963Z,40.08
2019-04-04T14:54:45.358Z,37.98
2019-04-04T14:57:18.791Z,40.17
2019-04-04T14:59:52.119Z,39.70
2019-04-04T15:02:25.479Z,39.30
2019-04-04T15:04:58.887Z,37.98
2019-04-04T15:07:32.253Z,37.03
2019-04-04T15:10:05.839Z,38.02
2019-04-04T15:12:39.184Z,34.55
2019-04-04T15:15:12.652Z,34.43
2019-04-04T15:17:46.045Z,36.98
2019-04-04T15:20:19.453Z,35.73
2019-04-04T15:22:52.831Z,35.45
2019-04-04T15:25:26.165Z,36.60
2019-04-04T15:27:59.538Z,37.88
2019-04-04T15:30:32.896Z,37.10
2019-04-04T15:33:06.310Z,39.40
2019-04-04T15:35:39.629Z,36.42
2019-04-04T15:38:12.981Z,36.00
2019-04-04T15:40:46.376Z,37.75
2019-04-04T15:43:19.858Z,35.95
2019-04-04T15:45:53.233Z,34.98
2019-04-04T15:48:26.581Z,36.42
2019-04-04T15:51:00.002Z,35.50
2019-04-04T15:53:33.363Z,35.17
2019-04-04T15:56:06.690Z,37.48
2019-04-04T15:58:40.042Z,35.45
2019-04-04T16:01:13.430Z,35.10
2019-04-04T16:03:46.813Z,35.70
2019-04-04T16:06:20.221Z,34.38
2019-04-04T16:08:53.579Z,36.23
2019-04-04T16:11:26.954Z,34.10
2019-04-04T16:14:00.308Z,34.18
2019-04-04T16:16:33.631Z,35.15
2019-04-04T16:19:07.097Z,33.78
2019-04-04T16:21:40.513Z,35.65
2019-04-04T16:24:13.889Z,37.28
2019-04-04T16:26:47.235Z,34.53
2019-04-04T16:29:20.591Z,36.00
2019-04-04T16:31:53.926Z,36.15
2019-04-04T16:34:27.353Z,37.33
2019-04-04T16:37:00.768Z,35.35
2019-04-04T16:39:35.441Z,35.33
2019-04-04T16:42:09.016Z,34.23
2019-04-04T16:44:42.445Z,35.63
2019-04-04T16:47:15.847Z,34.35
2019-04-04T16:49:49.365Z,33.83
2019-04-04T16:52:22.771Z,34.60
2019-04-04T16:54:56.235Z,36.77
2019-04-04T16:57:29.579Z,36.60
2019-04-04T17:00:03.461Z,39.23
2019-04-04T17:02:36.787Z,36.25
2019-04-04T17:05:11.082Z,39.30
2019-04-04T17:07:44.730Z,38.53
2019-04-04T17:10:18.165Z,37.55
2019-04-04T17:12:51.719Z,35.60
2019-04-04T17:15:25.087Z,37.25
2019-04-04T17:17:58.550Z,36.88
2019-04-04T17:20:31.905Z,35.48
2019-04-04T17:23:05.307Z,36.42
2019-04-04T17:25:38.825Z,38.53
2019-04-04T17:28:12.743Z,40.12
2019-04-04T17:30:46.278Z,37.20
2019-04-04T17:33:19.763Z,37.20
2019-04-04T17:35:53.083Z,35.63
2019-04-04T17:38:26.408Z,33.53
2019-04-04T17:40:59.827Z,35.70
2019-04-04T17:43:33.548Z,33.98
2019-04-04T17:46:07.028Z,35.23
2019-04-04T17:48:40.371Z,35.08
2019-04-04T17:51:13.787Z,36.83
2019-04-04T17:53:47.131Z,37.70
2019-04-04T17:56:20.498Z,37.93
2019-04-04T17:58:53.826Z,34.77
2019-04-04T18:01:27.173Z,35.73
2019-04-04T18:04:00.559Z,36.30
2019-04-04T18:06:33.909Z,38.20
2019-04-04T18:09:08.797Z,37.83
2019-04-04T18:11:42.255Z,38.87
2019-04-04T18:14:15.695Z,38.33
2019-04-04T18:16:49.127Z,40.80
2019-04-04T18:19:22.544Z,40.60
2019-04-04T18:21:55.916Z,37.50
2019-04-04T18:24:29.348Z,39.73
2019-04-04T18:27:02.763Z,38.43
2019-04-04T18:29:36.103Z,38.63
2019-04-04T18:32:09.473Z,41.13
2019-04-04T18:34:43.030Z,45.47
2019-04-04T18:37:16.499Z,42.37
2019-04-04T18:39:49.826Z,45.70
2019-04-04T18:42:23.185Z,40.43
2019-04-04T18:44:56.513Z,43.30
2019-04-04T18:47:29.966Z,44.73
2019-04-04T18:50:04.223Z,43.27
2019-04-04T18:52:37.567Z,41.17
2019-04-04T18:55:19.637Z,44.33
2019-04-04T18:57:46.082Z,44.00
2019-04-04T19:00:21.009Z,44.03
2019-04-04T19:02:54.429Z,43.60
2019-04-04T19:05:28.150Z,44.70
2019-04-04T19:08:01.537Z,43.90
2019-04-04T19:10:34.899Z,41.63
2019-04-04T19:13:08.349Z,45.90
2019-04-04T19:15:41.796Z,44.57
2019-04-04T19:18:15.194Z,49.70
2019-04-04T19:20:48.557Z,49.27
2019-04-04T19:23:21.934Z,43.20
2019-04-04T19:25:55.302Z,42.23
2019-04-04T19:28:28.652Z,43.70
2019-04-04T19:31:02.073Z,40.90
2019-04-04T19:33:35.406Z,41.87
2019-04-04T19:36:08.841Z,43.70
2019-04-04T19:38:42.167Z,41.53
2019-04-04T19:41:15.644Z,40.57
2019-04-04T19:43:49.050Z,42.07
2019-04-04T19:46:22.425Z,39.07
2019-04-04T19:48:55.763Z,36.73
2019-04-04T19:51:29.205Z,42.57
2019-04-04T19:54:02.604Z,40.53
2019-04-04T19:56:35.997Z,37.80
2019-04-04T19:59:09.302Z,39.07
2019-04-04T20:01:42.684Z,40.40
2019-04-04T20:04:16.099Z,43.97
2019-04-04T20:06:49.540Z,38.73
2019-04-04T20:09:22.943Z,37.23
2019-04-04T20:11:56.303Z,37.33
2019-04-04T20:14:29.685Z,38.03
2019-04-04T20:17:03.123Z,35.00
2019-04-04T20:19:36.470Z,33.53
2019-04-04T20:22:09.841Z,35.80
2019-04-04T20:24:43.263Z,36.10
2019-04-04T20:27:16.680Z,34.33
2019-04-04T20:29:50.022Z,32.90
2019-04-04T20:32:23.446Z,33.40
2019-04-04T20:34:56.856Z,32.63
2019-04-04T20:37:30.240Z,31.63
2019-04-04T20:40:04.833Z,32.13
2019-04-04T20:42:38.254Z,31.83
2019-04-04T20:45:11.756Z,32.47
2019-04-04T20:47:45.118Z,30.40
2019-04-04T20:50:18.522Z,31.00
2019-04-04T20:52:51.988Z,29.93
2019-04-04T20:55:25.306Z,29.73
2019-04-04T20:57:58.704Z,29.77
2019-04-04T21:00:32.032Z,30.77
2019-04-04T21:03:05.524Z,29.53
2019-04-04T21:05:38.919Z,30.83
2019-04-04T21:08:12.288Z,29.87
2019-04-04T21:10:45.609Z,30.67
2019-04-04T21:13:19.042Z,30.83
2019-04-04T21:15:52.429Z,27.40
2019-04-04T21:18:25.802Z,27.33
2019-04-04T21:20:59.153Z,29.57
2019-04-04T21:23:32.524Z,31.83
2019-04-04T21:26:06.006Z,29.23
2019-04-04T21:28:39.386Z,30.70
2019-04-04T21:31:12.704Z,31.17
2019-04-04T21:33:46.159Z,31.07
2019-04-04T21:36:19.550Z,28.43
2019-04-04T21:38:52.965Z,28.33
2019-04-04T21:41:26.364Z,27.97
2019-04-04T21:44:08.769Z,28.80
2019-04-04T21:46:35.001Z,29.37
2019-04-04T21:49:08.390Z,32.70
2019-04-04T21:51:41.712Z,30.80
2019-04-04T21:54:15.165Z,31.93
2019-04-04T21:56:48.493Z,33.27
2019-04-04T21:59:21.880Z,32.33
2019-04-04T22:01:55.268Z,31.33
2019-04-04T22:04:28.688Z,32.03
2019-04-04T22:07:02.155Z,31.77
2019-04-04T22:09:35.593Z,31.73
2019-04-04T22:12:08.964Z,31.37
2019-04-04T22:14:42.627Z,29.47
2019-04-04T22:17:16.021Z,31.37
2019-04-04T22:19:49.354Z,30.37
2019-04-04T22:22:22.712Z,30.33
2019-04-04T22:24:56.032Z,31.17
2019-04-04T22:27:29.629Z,29.70
2019-04-04T22:30:04.303Z,29.33
2019-04-04T22:32:37.667Z,30.10
2019-04-04T22:35:11.255Z,30.63
2019-04-04T22:37:44.613Z,30.60
2019-04-04T22:40:18.011Z,28.60
2019-04-04T22:42:51.398Z,31.07
2019-04-04T22:45:24.739Z,31.90
2019-04-04T22:47:58.189Z,31.93
2019-04-04T22:50:31.526Z,31.03
2019-04-04T22:53:04.884Z,31.13
2019-04-04T22:55:38.200Z,31.57
2019-04-04T22:58:11.568Z,34.50
2019-04-04T23:00:44.967Z,32.13
2019-04-04T23:03:18.412Z,30.87
2019-04-04T23:05:51.733Z,28.53
2019-04-04T23:08:25.095Z,31.53
2019-04-04T23:10:58.489Z,33.50
2019-04-04T23:13:31.961Z,35.23
2019-04-04T23:16:05.387Z,35.07
2019-04-04T23:18:38.832Z,35.50
2019-04-04T23:21:12.282Z,43.23
2019-04-04T23:23:45.682Z,32.57
2019-04-04T23:26:19.019Z,37.37
2019-04-04T23:28:52.369Z,38.47
2019-04-04T23:31:25.824Z,37.00
2019-04-04T23:33:59.176Z,37.47
2019-04-04T23:36:35.299Z,40.00
2019-04-04T23:39:09.279Z,38.27
2019-04-04T23:41:42.597Z,41.13
2019-04-04T23:44:15.996Z,38.10
2019-04-04T23:46:49.415Z,43.43
2019-04-04T23:49:22.807Z,40.73
2019-04-04T23:51:56.181Z,37.90
2019-04-04T23:54:29.575Z,38.60
2019-04-04T23:57:02.921Z,37.40
2019-04-04T23:59:36.476Z,42.37
